Time;durP1;ratioP1;P1;durP2;ratioP2;P2;SDS_P1;SDS_P2;PMS_P1;PMS_P2;Temp;Humidity;BMP_temperature;BMP_pressure;BME280_temperature;BME280_humidity;BME280_pressure;Samples;Min_cycle;Max_cycle;Signal;HPM_P1;HPM_P2
2023/01/25 00:00:54;;;;;;;13.27;6.32;;;0.40;99.90;;;;;;5060445;28;25061;-74
2023/01/25 00:03:22;;;;;;;14.68;6.68;;;0.40;99.90;;;;;;5060373;28;25111;-74
2023/01/25 00:05:58;;;;;;;10.48;6.00;;;0.40;99.90;;;;;;5078291;28;25122;-74
2023/01/25 00:08:25;;;;;;;11.20;6.15;;;0.40;99.90;;;;;;5078028;28;25053;-74
2023/01/25 00:10:53;;;;;;;11.05;5.68;;;0.40;99.90;;;;;;5078143;28;25059;-74
2023/01/25 00:13:20;;;;;;;11.65;5.57;;;0.40;99.90;;;;;;5077908;28;25067;-74
2023/01/25 00:15:48;;;;;;;14.98;6.40;;;0.30;99.90;;;;;;5060164;28;25110;-74
2023/01/25 00:18:15;;;;;;;14.55;7.15;;;0.40;99.90;;;;;;5077822;28;25115;-74
2023/01/25 00:20:42;;;;;;;15.15;6.40;;;0.30;99.90;;;;;;5078219;28;25076;-74
2023/01/25 00:23:10;;;;;;;11.43;5.45;;;0.40;99.90;;;;;;5077984;28;25075;-74
2023/01/25 00:25:37;;;;;;;14.18;6.50;;;0.30;99.90;;;;;;5077867;28;25067;-74
2023/01/25 00:28:05;;;;;;;14.52;7.10;;;0.40;99.90;;;;;;5078165;28;25064;-74
2023/01/25 00:30:32;;;;;;;13.70;6.45;;;0.40;99.90;;;;;;5060033;28;25133;-74
2023/01/25 00:33:27;;;;;;;13.18;6.40;;;0.40;99.90;;;;;;5077545;28;25096;-73
2023/01/25 00:36:00;;;;;;;16.35;6.40;;;0.40;99.90;;;;;;5049805;28;25136;-74
2023/01/25 00:38:38;;;;;;;13.40;6.38;;;0.40;99.90;;;;;;5077937;28;25074;-73
2023/01/25 00:41:08;;;;;;;11.25;6.18;;;0.40;99.90;;;;;;5097933;28;25047;-74
2023/01/25 00:43:35;;;;;;;16.35;7.07;;;0.40;99.90;;;;;;5079659;28;25147;-74
2023/01/25 00:46:03;;;;;;;12.30;7.18;;;0.40;99.90;;;;;;5097714;28;25101;-74
2023/01/25 00:48:30;;;;;;;17.67;7.22;;;0.40;99.90;;;;;;5097512;28;25062;-74
2023/01/25 00:51:01;;;;;;;13.85;6.20;;;0.40;99.90;;;;;;5097735;28;25047;-73
2023/01/25 00:53:28;;;;;;;13.40;7.00;;;0.40;99.90;;;;;;5097633;28;25079;-73
2023/01/25 00:55:56;;;;;;;15.55;7.22;;;0.40;99.90;;;;;;5097238;28;25063;-74
2023/01/25 00:58:23;;;;;;;13.63;6.63;;;0.40;99.90;;;;;;5079275;28;25072;-73
2023/01/25 01:00:55;;;;;;;14.15;6.85;;;0.40;99.90;;;;;;5097992;28;25074;-74
2023/01/25 01:03:23;;;;;;;13.85;6.80;;;0.30;99.90;;;;;;5097259;28;25147;-74
2023/01/25 01:06:10;;;;;;;16.95;7.38;;;0.40;99.90;;;;;;5079182;28;25061;-73
2023/01/25 01:08:41;;;;;;;13.40;6.60;;;0.40;99.90;;;;;;5097110;28;25061;-74
2023/01/25 01:11:10;;;;;;;13.52;6.70;;;0.40;99.90;;;;;;5097064;28;25064;-73
2023/01/25 01:13:39;;;;;;;16.42;7.40;;;0.40;99.90;;;;;;5097915;28;25073;-74
2023/01/25 01:16:10;;;;;;;18.83;8.25;;;0.40;99.90;;;;;;5096977;28;25049;-73
2023/01/25 01:18:43;;;;;;;16.00;7.63;;;0.40;99.90;;;;;;5096794;28;25052;-74
2023/01/25 01:21:11;;;;;;;14.93;6.80;;;0.40;99.90;;;;;;5097160;28;25054;-74
2023/01/25 01:23:39;;;;;;;15.63;8.05;;;0.40;99.90;;;;;;5097068;28;25115;-74
2023/01/25 01:26:10;;;;;;;17.83;8.05;;;0.40;99.90;;;;;;5078821;28;25067;-73
2023/01/25 01:28:39;;;;;;;17.00;7.65;;;0.40;99.90;;;;;;5078887;28;25059;-74
2023/01/25 01:31:12;;;;;;;18.63;8.20;;;0.40;99.90;;;;;;5097287;28;25142;-73
2023/01/25 01:33:39;;;;;;;15.38;7.60;;;0.40;99.90;;;;;;5096894;28;25082;-73
2023/01/25 01:36:08;;;;;;;20.50;8.07;;;0.40;99.90;;;;;;5097253;28;25080;-73
2023/01/25 01:38:35;;;;;;;19.08;7.90;;;0.50;99.90;;;;;;5096992;28;25094;-73
2023/01/25 01:41:03;;;;;;;19.27;9.23;;;0.50;99.90;;;;;;5096438;28;25059;-73
2023/01/25 01:43:30;;;;;;;15.80;7.53;;;0.50;99.90;;;;;;5078660;28;25089;-74
2023/01/25 01:46:04;;;;;;;24.90;9.02;;;0.50;99.90;;;;;;5096927;28;25109;-73
2023/01/25 01:48:47;;;;;;;17.40;8.55;;;0.50;99.90;;;;;;5096557;28;25078;-74
2023/01/25 01:51:34;;;;;;;18.30;8.35;;;0.40;99.90;;;;;;5096489;28;25066;-74
2023/01/25 01:54:12;;;;;;;16.80;7.13;;;0.50;99.90;;;;;;5078714;28;25073;-73
2023/01/25 01:57:05;;;;;;;18.15;8.93;;;0.50;99.90;;;;;;5096713;28;25145;-73
2023/01/25 01:59:56;;;;;;;17.45;7.45;;;0.50;99.90;;;;;;5096713;28;25065;-73
2023/01/25 02:02:25;;;;;;;17.67;7.85;;;0.50;99.90;;;;;;5096951;28;25149;-74
2023/01/25 02:04:59;;;;;;;18.40;9.20;;;0.50;99.90;;;;;;5096493;28;25058;-74
2023/01/25 02:07:34;;;;;;;20.85;8.10;;;0.50;99.90;;;;;;5097390;28;25059;-74
2023/01/25 02:10:07;;;;;;;16.63;8.60;;;0.50;99.90;;;;;;5100598;28;25104;-74
2023/01/25 02:12:36;;;;;;;18.08;8.73;;;0.50;99.90;;;;;;5082563;28;25055;-73
2023/01/25 02:15:04;;;;;;;22.00;8.43;;;0.40;99.90;;;;;;5100449;28;25058;-73
2023/01/25 02:17:35;;;;;;;19.23;9.27;;;0.50;99.90;;;;;;5100707;28;25078;-74
2023/01/25 02:20:36;;;;;;;18.58;9.15;;;0.50;99.90;;;;;;5100355;28;25105;-74
2023/01/25 02:23:08;;;;;;;20.20;8.77;;;0.50;99.90;;;;;;5100266;28;25078;-73
2023/01/25 02:25:35;;;;;;;17.30;8.32;;;0.50;99.90;;;;;;5100744;28;25061;-74
2023/01/25 02:28:16;;;;;;;20.02;8.07;;;0.50;99.90;;;;;;5100209;28;25056;-74
2023/01/25 02:30:44;;;;;;;20.52;8.48;;;0.50;99.90;;;;;;5082367;28;25126;-73
2023/01/25 02:33:11;;;;;;;17.92;8.55;;;0.50;99.90;;;;;;5100429;28;25120;-73
2023/01/25 02:35:50;;;;;;;18.42;8.68;;;0.50;99.90;;;;;;5100130;28;25061;-74
2023/01/25 02:38:18;;;;;;;15.50;7.22;;;0.50;99.90;;;;;;5100006;28;25075;-73
2023/01/25 02:40:56;;;;;;;17.95;7.78;;;0.50;99.90;;;;;;5099978;28;25081;-74
2023/01/25 02:43:29;;;;;;;17.90;8.30;;;0.40;99.90;;;;;;5100749;28;25081;-74
2023/01/25 02:46:12;;;;;;;17.20;8.05;;;0.50;99.90;;;;;;5099809;28;25049;-74
2023/01/25 02:48:39;;;;;;;23.25;9.85;;;0.40;99.90;;;;;;5081981;28;25078;-73
2023/01/25 02:51:08;;;;;;;19.23;8.18;;;0.40;99.90;;;;;;5100312;28;25064;-73
2023/01/25 02:53:36;;;;;;;18.92;8.07;;;0.40;99.90;;;;;;5099783;28;25051;-73
2023/01/25 02:56:04;;;;;;;17.98;6.93;;;0.40;99.90;;;;;;5099958;28;25068;-74
2023/01/25 02:58:31;;;;;;;16.42;7.88;;;0.40;99.90;;;;;;5099693;28;25115;-74
2023/01/25 03:00:58;;;;;;;18.30;9.30;;;0.40;99.90;;;;;;5100243;28;25113;-74
2023/01/25 03:03:25;;;;;;;16.67;7.40;;;0.40;99.90;;;;;;5100046;28;25092;-74
2023/01/25 03:05:53;;;;;;;16.30;7.68;;;0.40;99.90;;;;;;5081494;28;25061;-74
2023/01/25 03:08:21;;;;;;;18.17;7.95;;;0.40;99.90;;;;;;5099726;28;25088;-74
2023/01/25 03:10:48;;;;;;;18.15;8.73;;;0.40;99.90;;;;;;5099820;28;25100;-73
2023/01/25 03:13:15;;;;;;;16.75;7.90;;;0.40;99.90;;;;;;5099349;28;25096;-74
2023/01/25 03:15:42;;;;;;;18.50;8.20;;;0.40;99.90;;;;;;5081282;28;25047;-74
2023/01/25 03:18:09;;;;;;;21.02;9.05;;;0.40;99.90;;;;;;5099245;28;25138;-73
2023/01/25 03:20:36;;;;;;;19.15;8.15;;;0.40;99.90;;;;;;5097954;28;25133;-73
2023/01/25 03:23:03;;;;;;;16.88;7.68;;;0.40;99.90;;;;;;5081233;28;25109;-73
2023/01/25 03:25:31;;;;;;;15.93;6.88;;;0.30;99.90;;;;;;5099627;28;25050;-73
2023/01/25 03:27:58;;;;;;;17.17;7.15;;;0.30;99.90;;;;;;5099640;28;25091;-73
2023/01/25 03:30:25;;;;;;;16.67;7.68;;;0.30;99.90;;;;;;5099512;28;25054;-73
2023/01/25 03:32:52;;;;;;;16.75;7.20;;;0.30;99.90;;;;;;5099557;28;25124;-73
2023/01/25 03:35:19;;;;;;;14.65;6.95;;;0.30;99.90;;;;;;5099261;28;25059;-73
2023/01/25 03:37:47;;;;;;;18.45;8.00;;;0.20;99.90;;;;;;5098877;28;25095;-73
2023/01/25 03:40:14;;;;;;;14.05;7.07;;;0.20;99.90;;;;;;5077439;28;25113;-73
2023/01/25 03:42:42;;;;;;;15.32;7.20;;;0.20;99.90;;;;;;5079145;28;25065;-74
2023/01/25 03:45:13;;;;;;;16.10;7.65;;;0.30;99.90;;;;;;5078887;28;25051;-74
2023/01/25 03:47:41;;;;;;;15.02;7.68;;;0.30;99.90;;;;;;5078337;28;25066;-74
2023/01/25 03:50:09;;;;;;;17.90;7.78;;;0.30;99.90;;;;;;5077375;28;25100;-73
2023/01/25 03:52:37;;;;;;;16.63;8.65;;;0.30;99.90;;;;;;5078630;28;25074;-73
2023/01/25 03:55:06;;;;;;;16.80;7.75;;;0.30;99.90;;;;;;5078412;28;25062;-74
2023/01/25 03:57:33;;;;;;;16.08;7.38;;;0.30;99.90;;;;;;5078821;28;25056;-73
2023/01/25 04:00:00;;;;;;;18.02;7.57;;;0.30;99.90;;;;;;5078578;28;25108;-74
2023/01/25 04:02:27;;;;;;;16.17;7.65;;;0.30;99.90;;;;;;5077096;28;25077;-74
2023/01/25 04:04:54;;;;;;;16.25;7.43;;;0.30;99.90;;;;;;5078257;28;25079;-74
2023/01/25 04:07:22;;;;;;;16.35;8.10;;;0.20;99.90;;;;;;5078081;28;25107;-73
2023/01/25 04:09:50;;;;;;;16.17;8.05;;;0.20;99.90;;;;;;5078072;28;25063;-74
2023/01/25 04:12:18;;;;;;;15.73;8.27;;;0.20;99.90;;;;;;5077981;28;25112;-74
2023/01/25 04:14:45;;;;;;;18.98;8.40;;;0.20;99.90;;;;;;5078671;28;25074;-74
2023/01/25 04:17:12;;;;;;;22.13;8.23;;;0.20;99.90;;;;;;5077925;28;25134;-73
2023/01/25 04:19:40;;;;;;;19.08;8.63;;;0.20;99.90;;;;;;5076759;28;25048;-73
2023/01/25 04:22:08;;;;;;;17.15;7.40;;;0.20;99.90;;;;;;5077762;28;25124;-74
2023/01/25 04:24:35;;;;;;;19.38;8.68;;;0.20;99.90;;;;;;5077823;28;25065;-73
2023/01/25 04:27:03;;;;;;;17.35;8.43;;;0.20;99.90;;;;;;5078250;28;25081;-73
2023/01/25 04:29:30;;;;;;;16.27;8.27;;;0.20;99.90;;;;;;5076716;28;25117;-74
2023/01/25 04:31:57;;;;;;;17.02;7.68;;;0.30;99.90;;;;;;5077479;28;25136;-74
2023/01/25 04:34:25;;;;;;;18.10;8.32;;;0.30;99.90;;;;;;5077838;28;25120;-74
2023/01/25 04:36:52;;;;;;;24.23;8.45;;;0.30;99.90;;;;;;5078068;28;25069;-73
2023/01/25 04:39:19;;;;;;;21.95;8.23;;;0.30;99.90;;;;;;5082426;28;25141;-74
2023/01/25 04:41:46;;;;;;;16.98;7.28;;;0.20;99.90;;;;;;5097945;28;25087;-74
2023/01/25 04:44:14;;;;;;;21.85;9.20;;;0.20;99.90;;;;;;5097602;28;25061;-73
2023/01/25 04:46:44;;;;;;;17.35;7.88;;;0.20;99.90;;;;;;5079850;28;25105;-73
2023/01/25 04:49:11;;;;;;;21.13;8.13;;;0.20;99.90;;;;;;5097965;28;25058;-74
2023/01/25 04:51:38;;;;;;;19.02;8.93;;;0.20;99.90;;;;;;5098021;28;25058;-73
2023/01/25 04:54:06;;;;;;;20.85;8.80;;;0.20;99.90;;;;;;5097418;28;25089;-73
2023/01/25 04:56:34;;;;;;;21.85;8.68;;;0.20;99.90;;;;;;5097935;28;25060;-73
2023/01/25 04:59:01;;;;;;;20.38;9.50;;;0.20;99.90;;;;;;5097437;28;25148;-74
2023/01/25 05:01:28;;;;;;;19.65;9.32;;;0.20;99.90;;;;;;5079238;28;25061;-73
2023/01/25 05:03:56;;;;;;;19.85;8.88;;;0.20;99.90;;;;;;5079261;28;25073;-74
2023/01/25 05:06:23;;;;;;;19.52;9.25;;;0.20;99.90;;;;;;5079127;28;25056;-73
2023/01/25 05:08:50;;;;;;;22.90;10.77;;;0.20;99.90;;;;;;5097910;28;25053;-74
2023/01/25 05:11:17;;;;;;;23.00;9.70;;;0.20;99.90;;;;;;5079119;28;25078;-73
2023/01/25 05:13:45;;;;;;;24.55;10.15;;;0.20;99.90;;;;;;5097074;28;25079;-73
2023/01/25 05:16:12;;;;;;;23.98;9.93;;;0.20;99.90;;;;;;5079047;28;25074;-73
2023/01/25 05:18:39;;;;;;;26.70;10.57;;;0.20;99.90;;;;;;5079175;28;25100;-74
2023/01/25 05:21:56;;;;;;;23.13;10.00;;;0.20;99.90;;;;;;5097500;28;25073;-73
2023/01/25 05:23:54;;;;;;;24.23;9.57;;;0.20;99.90;;;;;;5096635;28;25064;-74
2023/01/25 05:29:08;;;;;;;27.10;9.50;;;0.20;99.90;;;;;;5097010;28;25110;-73
2023/01/25 05:31:36;;;;;;;19.60;8.60;;;0.30;99.90;;;;;;5078809;28;25105;-73
2023/01/25 05:34:03;;;;;;;19.52;7.45;;;0.20;99.90;;;;;;5097046;28;25344;-73
2023/01/25 05:36:31;;;;;;;16.08;7.70;;;0.30;99.90;;;;;;5078627;28;25080;-73
2023/01/25 05:38:58;;;;;;;14.25;7.38;;;0.30;99.90;;;;;;5096585;28;25073;-74
2023/01/25 05:41:25;;;;;;;22.25;7.57;;;0.20;99.90;;;;;;5097112;28;25063;-73
2023/01/25 05:43:53;;;;;;;20.25;7.53;;;0.20;99.90;;;;;;5077992;28;25057;-73
2023/01/25 05:46:21;;;;;;;15.88;7.28;;;0.20;99.90;;;;;;5078521;28;25091;-73
2023/01/25 05:48:49;;;;;;;20.25;7.88;;;0.20;99.90;;;;;;5096529;28;25049;-73
2023/01/25 05:51:16;;;;;;;21.23;8.75;;;0.10;99.90;;;;;;5078559;28;25103;-74
2023/01/25 05:53:43;;;;;;;17.10;8.35;;;0.10;99.90;;;;;;5096755;28;25111;-73
2023/01/25 05:56:11;;;;;;;20.63;8.07;;;0.10;99.90;;;;;;5096379;28;25152;-73
2023/01/25 05:58:39;;;;;;;19.33;8.38;;;0.10;99.90;;;;;;5096414;28;25095;-73
2023/01/25 06:01:07;;;;;;;19.52;7.68;;;0.10;99.90;;;;;;5096297;28;25056;-73
2023/01/25 06:03:35;;;;;;;15.85;8.00;;;0.10;99.90;;;;;;5078650;28;25074;-73
2023/01/25 06:06:02;;;;;;;19.08;7.93;;;0.00;99.90;;;;;;5096303;28;25078;-73
2023/01/25 06:08:30;;;;;;;20.05;8.77;;;0.00;99.90;;;;;;5078398;28;25112;-73
2023/01/25 06:10:57;;;;;;;20.50;9.13;;;0.00;99.90;;;;;;5096263;28;25053;-73
2023/01/25 06:13:25;;;;;;;19.08;8.02;;;0.00;99.90;;;;;;5096736;28;25062;-73
2023/01/25 06:15:56;;;;;;;20.35;8.07;;;0.00;99.90;;;;;;5096253;28;25085;-73
2023/01/25 06:18:24;;;;;;;19.30;7.65;;;-0.10;99.90;;;;;;5096298;28;25060;-73
2023/01/25 06:20:57;;;;;;;16.35;7.95;;;-0.10;99.90;;;;;;5096802;28;25113;-73
2023/01/25 06:23:24;;;;;;;19.20;8.15;;;-0.10;99.90;;;;;;5078398;28;25067;-73
2023/01/25 06:25:56;;;;;;;20.40;8.68;;;-0.10;99.90;;;;;;5096066;28;25143;-73
2023/01/25 06:28:23;;;;;;;25.15;8.98;;;-0.10;99.90;;;;;;5096191;28;25071;-73
2023/01/25 06:30:51;;;;;;;18.63;7.82;;;-0.10;99.90;;;;;;5096108;28;25067;-73
2023/01/25 06:33:19;;;;;;;19.60;7.72;;;-0.10;99.90;;;;;;5096326;28;25210;-73
2023/01/25 06:35:46;;;;;;;17.42;7.80;;;-0.10;99.90;;;;;;5096090;28;25084;-73
2023/01/25 06:38:14;;;;;;;19.65;7.57;;;-0.10;99.90;;;;;;5096098;28;25061;-73
2023/01/25 06:40:42;;;;;;;17.65;6.80;;;-0.10;99.90;;;;;;5095867;28;25072;-73
2023/01/25 06:43:11;;;;;;;22.30;8.05;;;-0.10;99.90;;;;;;5078247;28;25063;-73
2023/01/25 06:45:38;;;;;;;17.45;7.57;;;-0.10;99.90;;;;;;5078004;28;25098;-73
2023/01/25 06:48:05;;;;;;;21.30;7.57;;;-0.20;99.90;;;;;;5078026;28;25076;-73
2023/01/25 06:50:33;;;;;;;23.70;9.02;;;-0.10;99.90;;;;;;5095965;28;25129;-73
2023/01/25 06:53:01;;;;;;;18.98;7.85;;;-0.10;99.90;;;;;;5095953;28;25119;-73
2023/01/25 06:55:28;;;;;;;22.95;8.60;;;-0.10;99.90;;;;;;5099963;28;25068;-73
2023/01/25 06:58:00;;;;;;;20.63;7.10;;;-0.10;99.90;;;;;;5100262;28;25071;-73
2023/01/25 07:00:27;;;;;;;17.20;7.53;;;-0.10;99.90;;;;;;5099392;28;25113;-73
2023/01/25 07:02:55;;;;;;;22.25;8.90;;;-0.10;99.90;;;;;;5081606;28;25073;-74
2023/01/25 07:05:22;;;;;;;19.33;7.97;;;0.00;99.90;;;;;;5099953;28;25077;-73
2023/01/25 07:07:50;;;;;;;17.55;7.05;;;-0.10;99.90;;;;;;5099366;28;25057;-73
2023/01/25 07:10:17;;;;;;;14.40;7.40;;;-0.10;99.90;;;;;;5081531;28;25128;-73
2023/01/25 07:12:44;;;;;;;15.57;7.25;;;-0.10;99.90;;;;;;5100517;28;25096;-73
2023/01/25 07:15:11;;;;;;;13.32;6.15;;;-0.10;99.90;;;;;;5081504;28;25123;-73
2023/01/25 07:17:39;;;;;;;17.25;6.97;;;-0.20;99.90;;;;;;5099464;28;25106;-75
2023/01/25 07:20:06;;;;;;;17.25;6.50;;;-0.20;99.90;;;;;;5099729;28;25196;-72
2023/01/25 07:22:34;;;;;;;14.52;6.28;;;-0.20;99.90;;;;;;5099198;28;25076;-73
2023/01/25 07:25:01;;;;;;;13.32;5.90;;;-0.20;99.90;;;;;;5099057;28;25105;-73
2023/01/25 07:27:33;;;;;;;14.27;6.70;;;-0.20;99.90;;;;;;5099097;28;25117;-74
2023/01/25 07:30:02;;;;;;;20.88;7.85;;;-0.20;99.90;;;;;;5099162;28;25104;-74
2023/01/25 07:32:29;;;;;;;19.52;8.23;;;-0.20;99.90;;;;;;5081054;28;25099;-75
2023/01/25 07:34:57;;;;;;;13.63;6.65;;;-0.10;99.90;;;;;;5098926;28;25054;-72
2023/01/25 07:37:26;;;;;;;16.92;7.22;;;-0.10;99.90;;;;;;5098918;28;25055;-75
2023/01/25 07:39:57;;;;;;;15.85;6.03;;;-0.10;99.90;;;;;;5077409;28;25147;-73
2023/01/25 07:42:24;;;;;;;15.45;5.80;;;-0.10;99.90;;;;;;5078524;28;25068;-74
2023/01/25 07:44:52;;;;;;;19.35;6.30;;;-0.10;99.90;;;;;;5078537;28;25062;-76
2023/01/25 07:47:19;;;;;;;13.93;6.70;;;-0.10;99.90;;;;;;5078486;28;25052;-75
2023/01/25 07:49:47;;;;;;;17.00;7.50;;;-0.10;99.90;;;;;;5078825;28;25077;-74
2023/01/25 07:52:14;;;;;;;15.15;6.45;;;-0.10;99.90;;;;;;5078988;28;25060;-74
2023/01/25 07:54:42;;;;;;;18.60;6.35;;;-0.10;99.90;;;;;;5078373;28;25089;-79
2023/01/25 07:57:09;;;;;;;13.88;6.78;;;-0.10;99.90;;;;;;5078547;28;25058;-76
2023/01/25 07:59:37;;;;;;;45.15;16.13;;;-0.10;99.90;;;;;;5078397;28;25107;-76
2023/01/25 08:02:04;;;;;;;30.35;9.95;;;-0.10;99.90;;;;;;5078503;28;25057;-74
2023/01/25 08:04:31;;;;;;;21.23;9.40;;;0.00;99.90;;;;;;5078138;28;25058;-75
2023/01/25 08:06:59;;;;;;;45.13;17.42;;;0.00;99.90;;;;;;5077594;28;25100;-75
2023/01/25 08:09:27;;;;;;;20.38;8.15;;;0.00;99.90;;;;;;5077166;28;25128;-76
2023/01/25 08:11:54;;;;;;;18.65;7.90;;;0.00;99.90;;;;;;5078008;28;25139;-71
2023/01/25 08:14:23;;;;;;;20.63;8.05;;;0.00;99.90;;;;;;5078549;28;25093;-73
2023/01/25 08:16:50;;;;;;;18.70;7.85;;;0.00;99.90;;;;;;5077875;28;25097;-70
2023/01/25 08:19:19;;;;;;;19.23;7.40;;;0.00;99.90;;;;;;5076933;28;25100;-74
2023/01/25 08:21:46;;;;;;;15.45;5.85;;;0.00;99.90;;;;;;5078083;28;25095;-71
2023/01/25 08:24:13;;;;;;;15.57;6.68;;;0.00;99.90;;;;;;5060104;28;25135;-70
2023/01/25 08:26:42;;;;;;;14.35;5.97;;;0.00;99.90;;;;;;5077830;28;25112;-72
2023/01/25 08:29:11;;;;;;;22.05;8.27;;;0.00;99.90;;;;;;5077762;28;25113;-69
2023/01/25 08:31:42;;;;;;;17.45;7.00;;;0.00;99.90;;;;;;5076496;28;25055;-71
2023/01/25 08:34:11;;;;;;;13.48;6.05;;;0.00;99.90;;;;;;5077759;28;25052;-71
2023/01/25 08:36:39;;;;;;;15.48;5.78;;;0.00;99.90;;;;;;5076402;28;25072;-71
2023/01/25 08:39:07;;;;;;;14.25;6.18;;;0.00;99.90;;;;;;5078932;28;25067;-71
2023/01/25 08:41:35;;;;;;;17.25;7.55;;;-0.10;99.90;;;;;;5097819;28;25076;-71
2023/01/25 08:44:03;;;;;;;13.93;6.13;;;-0.10;99.90;;;;;;5097650;28;25120;-72
2023/01/25 08:46:32;;;;;;;18.92;7.50;;;-0.10;99.90;;;;;;5097482;28;25088;-71
2023/01/25 08:49:01;;;;;;;17.77;6.18;;;-0.10;99.90;;;;;;5079595;28;25064;-71
2023/01/25 08:51:28;;;;;;;16.33;7.03;;;-0.10;99.90;;;;;;5079476;28;25108;-71
2023/01/25 08:53:56;;;;;;;17.98;7.75;;;-0.10;99.90;;;;;;5079709;28;25110;-71
2023/01/25 08:56:23;;;;;;;18.58;7.72;;;-0.10;99.90;;;;;;5079373;28;25046;-71
2023/01/25 08:58:51;;;;;;;15.10;5.75;;;-0.10;99.90;;;;;;5097309;28;25120;-71
2023/01/25 09:01:19;;;;;;;18.25;7.22;;;-0.10;99.90;;;;;;5097166;28;25053;-67
2023/01/25 09:03:49;;;;;;;14.85;7.10;;;-0.10;99.90;;;;;;5098027;28;25145;-71
2023/01/25 09:06:16;;;;;;;15.38;6.75;;;-0.10;99.90;;;;;;5097291;28;25069;-71
2023/01/25 09:08:44;;;;;;;16.58;6.50;;;-0.10;99.90;;;;;;5097752;28;25061;-68
2023/01/25 09:11:16;;;;;;;16.83;6.22;;;0.00;99.90;;;;;;5079274;28;25114;-72
2023/01/25 09:13:44;;;;;;;19.00;7.50;;;-0.10;99.90;;;;;;5097255;28;25059;-70
2023/01/25 09:16:15;;;;;;;18.60;7.88;;;0.00;99.90;;;;;;5097271;28;25075;-71
2023/01/25 09:18:43;;;;;;;18.27;7.55;;;0.00;99.90;;;;;;5079032;28;25060;-69
2023/01/25 09:21:13;;;;;;;17.70;7.00;;;0.10;99.90;;;;;;5096823;28;25049;-72
2023/01/25 09:23:43;;;;;;;17.35;7.68;;;0.10;99.90;;;;;;5097068;28;25084;-72
2023/01/25 09:26:14;;;;;;;19.27;7.63;;;0.20;99.90;;;;;;5096879;28;25053;-71
2023/01/25 09:28:46;;;;;;;15.65;6.43;;;0.20;99.90;;;;;;5096720;28;25151;-71
2023/01/25 09:31:14;;;;;;;18.55;7.43;;;0.20;99.90;;;;;;5096812;28;25135;-70
2023/01/25 09:33:42;;;;;;;19.38;7.80;;;0.20;99.90;;;;;;5097345;28;25080;-70
2023/01/25 09:36:10;;;;;;;18.92;7.78;;;0.20;99.90;;;;;;5078755;28;25073;-70
2023/01/25 09:38:37;;;;;;;19.23;8.77;;;0.20;99.90;;;;;;5096924;28;25061;-70
2023/01/25 09:41:37;;;;;;;21.83;8.80;;;0.20;99.90;;;;;;5096428;28;25111;-70
2023/01/25 09:44:22;;;;;;;23.02;7.18;;;0.20;99.90;;;;;;5041410;28;25121;-71
2023/01/25 09:47:18;;;;;;;23.58;8.63;;;0.20;99.90;;;;;;5090833;28;25065;-72
2023/01/25 09:50:04;;;;;;;19.42;8.40;;;0.20;99.90;;;;;;5090018;28;25106;-73
2023/01/25 09:53:00;;;;;;;19.60;7.82;;;0.20;99.90;;;;;;5078607;28;25083;-73
2023/01/25 09:55:29;;;;;;;21.52;7.90;;;0.20;99.90;;;;;;5096526;28;25071;-72
2023/01/25 09:58:00;;;;;;;23.88;9.15;;;0.20;99.90;;;;;;5096665;28;25130;-73
2023/01/25 10:00:34;;;;;;;21.85;8.55;;;0.30;99.90;;;;;;5097002;28;25111;-73
2023/01/25 10:03:21;;;;;;;24.20;7.65;;;0.30;99.90;;;;;;5096382;28;25099;-72
2023/01/25 10:05:55;;;;;;;21.80;8.35;;;0.30;99.90;;;;;;5096875;28;25050;-72
2023/01/25 10:08:54;;;;;;;19.05;8.13;;;0.30;99.90;;;;;;5096578;28;25068;-71
2023/01/25 10:11:27;;;;;;;18.90;6.95;;;0.30;99.90;;;;;;5096604;28;25054;-71
2023/01/25 10:13:57;;;;;;;19.30;7.80;;;0.30;99.90;;;;;;5096370;28;25086;-72
2023/01/25 10:16:51;;;;;;;18.80;7.38;;;0.40;99.90;;;;;;5096172;28;25119;-73
2023/01/25 10:19:54;;;;;;;23.02;8.50;;;0.40;99.90;;;;;;5096749;28;25084;-73
2023/01/25 10:22:32;;;;;;;24.05;8.38;;;0.40;99.90;;;;;;5078696;28;25074;-72
2023/01/25 10:25:00;;;;;;;17.35;7.35;;;0.40;99.90;;;;;;5096143;28;25074;-72
2023/01/25 10:27:41;;;;;;;17.65;8.18;;;0.40;99.90;;;;;;5096733;28;25070;-72
2023/01/25 10:30:29;;;;;;;19.38;7.53;;;0.40;99.90;;;;;;5099827;28;25103;-72
2023/01/25 10:33:07;;;;;;;20.10;7.97;;;0.40;99.90;;;;;;5100744;28;25103;-74
2023/01/25 10:35:38;;;;;;;18.30;7.55;;;0.40;99.90;;;;;;5082734;28;25085;-74
2023/01/25 10:38:21;;;;;;;15.75;7.22;;;0.40;99.90;;;;;;5100548;28;25131;-74
2023/01/25 10:41:05;;;;;;;17.55;7.60;;;0.40;99.90;;;;;;5100013;28;25061;-74
2023/01/25 10:43:32;;;;;;;23.13;8.68;;;0.30;99.90;;;;;;5100620;28;25103;-75
2023/01/25 10:46:00;;;;;;;19.70;8.05;;;0.40;99.90;;;;;;5099862;28;25122;-73
2023/01/25 10:48:35;;;;;;;15.27;6.75;;;0.40;99.90;;;;;;5100603;28;25138;-74
2023/01/25 10:51:03;;;;;;;15.75;6.82;;;0.40;99.90;;;;;;5081879;28;25121;-75
2023/01/25 10:53:36;;;;;;;17.50;7.88;;;0.50;99.90;;;;;;5099804;28;25141;-72
2023/01/25 10:56:21;;;;;;;20.13;8.30;;;0.50;99.90;;;;;;5099735;28;25139;-74
2023/01/25 10:58:53;;;;;;;18.90;7.68;;;0.50;99.90;;;;;;5100263;28;25102;-74
2023/01/25 11:01:32;;;;;;;18.90;7.45;;;0.50;99.90;;;;;;5099368;28;25131;-73
2023/01/25 11:04:01;;;;;;;21.27;8.77;;;0.50;99.90;;;;;;5099847;28;25071;-73
2023/01/25 11:06:38;;;;;;;20.23;8.30;;;0.50;99.90;;;;;;5099419;28;25070;-73
2023/01/25 11:09:37;;;;;;;17.52;7.75;;;0.50;99.90;;;;;;5099607;28;25069;-72
2023/01/25 11:12:17;;;;;;;16.02;7.13;;;0.50;99.90;;;;;;5099722;28;25139;-72
2023/01/25 11:14:50;;;;;;;20.33;7.32;;;0.50;99.90;;;;;;5099739;28;25135;-72
2023/01/25 11:17:38;;;;;;;18.10;7.63;;;0.40;99.90;;;;;;5099276;28;25125;-72
2023/01/25 11:20:19;;;;;;;18.52;7.55;;;0.40;99.90;;;;;;5099341;28;25068;-72
2023/01/25 11:22:54;;;;;;;16.35;7.20;;;0.40;99.90;;;;;;5099371;28;25067;-73
2023/01/25 11:25:32;;;;;;;18.00;7.78;;;0.30;99.90;;;;;;5099020;28;25121;-73
2023/01/25 11:28:18;;;;;;;17.75;7.18;;;0.30;99.90;;;;;;5099125;28;25075;-72
2023/01/25 11:30:46;;;;;;;16.60;7.55;;;0.30;99.90;;;;;;5099570;28;25124;-74
2023/01/25 11:33:16;;;;;;;15.20;6.88;;;0.30;99.90;;;;;;5081185;28;25081;-73
2023/01/25 11:36:04;;;;;;;17.23;7.82;;;0.30;99.90;;;;;;5081344;28;25064;-75
2023/01/25 11:38:31;;;;;;;13.95;6.43;;;0.30;99.90;;;;;;5080909;28;25072;-74
2023/01/25 11:41:23;;;;;;;18.67;7.93;;;0.20;99.90;;;;;;5097415;28;25076;-74
2023/01/25 11:44:19;;;;;;;17.38;7.65;;;0.20;99.90;;;;;;5098990;28;25060;-75
2023/01/25 11:47:06;;;;;;;21.50;7.55;;;0.20;99.90;;;;;;5099232;28;25065;-75
2023/01/25 11:50:10;;;;;;;19.33;7.80;;;0.20;99.90;;;;;;5099283;28;25104;-73
2023/01/25 11:52:54;;;;;;;20.27;8.25;;;0.30;99.90;;;;;;5080706;28;25108;-71
2023/01/25 11:55:47;;;;;;;18.33;8.18;;;0.30;99.90;;;;;;5098615;28;25051;-72
2023/01/25 11:58:44;;;;;;;20.83;8.30;;;0.40;99.90;;;;;;5098526;28;25116;-72
2023/01/25 12:01:24;;;;;;;12.93;5.85;;;0.40;99.90;;;;;;5098321;28;25081;-72
2023/01/25 12:04:10;;;;;;;21.42;9.00;;;0.40;99.90;;;;;;5099199;28;25055;-72
2023/01/25 12:06:57;;;;;;;17.17;7.90;;;0.30;99.90;;;;;;5098620;28;25056;-73
2023/01/25 12:09:51;;;;;;;22.63;9.77;;;0.40;99.90;;;;;;5098358;28;25075;-75
2023/01/25 12:12:40;;;;;;;18.95;7.40;;;0.30;99.90;;;;;;5098272;28;25068;-73
2023/01/25 12:15:43;;;;;;;14.15;7.38;;;0.30;99.90;;;;;;5098152;28;25106;-72
2023/01/25 12:18:28;;;;;;;16.02;7.25;;;0.20;99.90;;;;;;5098193;28;25071;-73
2023/01/25 12:21:02;;;;;;;16.10;6.85;;;0.20;99.90;;;;;;5098561;28;25055;-75
2023/01/25 12:24:04;;;;;;;15.27;7.30;;;0.20;99.90;;;;;;5098060;28;25144;-74
2023/01/25 12:26:35;;;;;;;16.63;8.43;;;0.10;99.90;;;;;;5097963;28;25164;-74
2023/01/25 12:29:35;;;;;;;15.68;7.28;;;0.10;99.90;;;;;;5098428;28;25116;-74
2023/01/25 12:32:12;;;;;;;16.88;7.18;;;0.20;99.90;;;;;;5098463;28;25064;-74
2023/01/25 12:34:48;;;;;;;17.48;8.50;;;0.10;99.90;;;;;;5079880;28;25065;-74
2023/01/25 12:37:32;;;;;;;21.60;9.20;;;0.20;99.90;;;;;;5080245;28;25143;-74
2023/01/25 12:40:28;;;;;;;14.57;6.55;;;0.20;99.90;;;;;;5097000;28;25142;-74
2023/01/25 12:43:00;;;;;;;14.25;6.15;;;0.20;99.90;;;;;;5096334;28;25094;-74
2023/01/25 12:45:32;;;;;;;13.85;6.60;;;0.20;99.90;;;;;;5097392;28;25054;-74
2023/01/25 12:48:03;;;;;;;15.55;6.93;;;0.10;99.90;;;;;;5098012;28;25090;-74
2023/01/25 12:50:41;;;;;;;14.48;6.38;;;0.10;99.90;;;;;;5097569;28;25070;-74
2023/01/25 12:53:45;;;;;;;13.00;6.15;;;0.10;99.90;;;;;;5097790;28;25071;-74
2023/01/25 12:56:42;;;;;;;13.52;6.00;;;0.20;99.90;;;;;;5094866;28;25069;-74
2023/01/25 12:59:37;;;;;;;15.68;6.50;;;0.20;99.90;;;;;;5097569;28;25104;-74
2023/01/25 13:02:27;;;;;;;12.35;6.22;;;0.20;99.90;;;;;;5079293;28;25064;-74
2023/01/25 13:05:16;;;;;;;13.10;5.40;;;0.30;99.90;;;;;;5097486;28;25078;-74
2023/01/25 13:08:11;;;;;;;12.15;6.10;;;0.30;99.90;;;;;;5097779;28;25067;-74
2023/01/25 13:11:06;;;;;;;13.45;6.80;;;0.30;99.90;;;;;;5098846;28;25069;-74
2023/01/25 13:13:34;;;;;;;11.77;5.80;;;0.30;99.90;;;;;;5097815;28;25110;-74
2023/01/25 13:16:35;;;;;;;13.73;7.03;;;0.30;99.90;;;;;;5097074;28;25088;-74